Terminal Aerodrome Forecast
Issued by NWS Binghamton, NY

Home | Current Version | Previous Version | Text Only | Print | Product List | Glossary On
Versions: 1 2 3 4 5 6 7 8 9 10 11 12 13 14 15 16 17 18 19
000
FTUS41 KBGM 241932 AAB
TAFBGM
TAF AMD
KBGM 241932Z 2420/2518 22010KT P6SM SCT035
     FM250400 33005KT 5SM BR OVC015
     FM250800 26009KT 5SM BR OVC007=

USA.gov is the U.S. government's official web portal to all federal, state and local government web resources and services.